sensor_id;sensor_type;location;lat;lon;timestamp;pressure;altitude;pressure_sealevel;temperature;humidity
44481;BME280;30184;42.018;23.670;2023-02-28T00:00:40;91806.22;;;6.52;95.92
44481;BME280;30184;42.018;23.670;2023-02-28T00:03:12;91890.91;;;7.06;95.97
44481;BME280;30184;42.018;23.670;2023-02-28T00:05:41;91856.44;;;6.83;95.98
44481;BME280;30184;42.018;23.670;2023-02-28T00:08:10;91889.38;;;7.05;95.96
44481;BME280;30184;42.018;23.670;2023-02-28T00:10:40;91884.41;;;7.03;95.73
44481;BME280;30184;42.018;23.670;2023-02-28T00:13:10;91890.59;;;7.00;95.72
44481;BME280;30184;42.018;23.670;2023-02-28T00:15:40;91898.69;;;6.97;95.62
44481;BME280;30184;42.018;23.670;2023-02-28T00:18:11;91894.88;;;6.94;95.76
44481;BME280;30184;42.018;23.670;2023-02-28T00:20:41;91939.59;;;6.92;95.90
44481;BME280;30184;42.018;23.670;2023-02-28T00:23:10;91907.59;;;6.94;96.08
44481;BME280;30184;42.018;23.670;2023-02-28T00:25:39;91896.41;;;6.95;96.08
44481;BME280;30184;42.018;23.670;2023-02-28T00:28:09;91893.31;;;6.97;96.05
44481;BME280;30184;42.018;23.670;2023-02-28T00:30:38;91900.25;;;6.98;95.99
44481;BME280;30184;42.018;23.670;2023-02-28T00:33:08;91851.22;;;6.62;95.98
44481;BME280;30184;42.018;23.670;2023-02-28T00:35:39;91895.59;;;6.98;95.98
44481;BME280;30184;42.018;23.670;2023-02-28T00:38:09;91901.00;;;6.98;96.03
44481;BME280;30184;42.018;23.670;2023-02-28T00:40:39;91910.25;;;6.97;95.93
44481;BME280;30184;42.018;23.670;2023-02-28T00:43:11;91892.59;;;6.93;95.70
44481;BME280;30184;42.018;23.670;2023-02-28T00:45:40;91818.66;;;6.39;95.49
44481;BME280;30184;42.018;23.670;2023-02-28T00:48:10;91901.06;;;6.91;95.81
44481;BME280;30184;42.018;23.670;2023-02-28T00:50:41;91900.69;;;6.89;95.64
44481;BME280;30184;42.018;23.670;2023-02-28T00:53:10;91888.75;;;6.87;95.67
44481;BME280;30184;42.018;23.670;2023-02-28T00:55:39;91894.22;;;6.80;95.89
44481;BME280;30184;42.018;23.670;2023-02-28T00:58:08;91894.25;;;6.76;95.85
44481;BME280;30184;42.018;23.670;2023-02-28T01:00:38;91897.38;;;6.71;95.95
44481;BME280;30184;42.018;23.670;2023-02-28T01:03:08;91919.38;;;6.66;96.36
44481;BME280;30184;42.018;23.670;2023-02-28T01:05:37;91903.59;;;6.64;96.57
44481;BME280;30184;42.018;23.670;2023-02-28T01:08:10;91818.88;;;6.10;96.56
44481;BME280;30184;42.018;23.670;2023-02-28T01:10:40;91882.56;;;6.42;96.88
44481;BME280;30184;42.018;23.670;2023-02-28T01:13:09;91884.41;;;6.52;96.89
44481;BME280;30184;42.018;23.670;2023-02-28T01:15:42;91889.06;;;6.48;96.78
44481;BME280;30184;42.018;23.670;2023-02-28T01:18:12;91853.06;;;6.17;96.56
44481;BME280;30184;42.018;23.670;2023-02-28T01:20:42;91891.91;;;6.26;96.34
44481;BME280;30184;42.018;23.670;2023-02-28T01:23:14;91901.53;;;6.27;96.54
44481;BME280;30184;42.018;23.670;2023-02-28T01:25:43;91898.06;;;6.23;96.53
44481;BME280;30184;42.018;23.670;2023-02-28T01:28:12;91886.16;;;6.21;96.68
44481;BME280;30184;42.018;23.670;2023-02-28T01:30:42;91888.47;;;6.19;96.75
44481;BME280;30184;42.018;23.670;2023-02-28T01:33:11;91818.28;;;5.71;96.50
44481;BME280;30184;42.018;23.670;2023-02-28T01:35:40;91884.28;;;6.11;96.66
44481;BME280;30184;42.018;23.670;2023-02-28T01:38:10;91887.78;;;6.04;96.59
44481;BME280;30184;42.018;23.670;2023-02-28T01:40:50;91893.19;;;5.97;96.42
44481;BME280;30184;42.018;23.670;2023-02-28T01:43:22;91886.31;;;5.92;96.48
44481;BME280;30184;42.018;23.670;2023-02-28T01:45:52;91883.63;;;5.89;96.59
44481;BME280;30184;42.018;23.670;2023-02-28T01:48:24;91876.31;;;5.82;96.31
44481;BME280;30184;42.018;23.670;2023-02-28T01:50:56;91883.34;;;5.55;96.32
44481;BME280;30184;42.018;23.670;2023-02-28T01:53:32;91892.53;;;5.72;96.41
44481;BME280;30184;42.018;23.670;2023-02-28T01:56:07;91892.91;;;5.67;96.19
44481;BME280;30184;42.018;23.670;2023-02-28T01:58:38;91871.13;;;5.36;96.53
44481;BME280;30184;42.018;23.670;2023-02-28T02:01:08;91884.47;;;5.57;96.45
44481;BME280;30184;42.018;23.670;2023-02-28T02:03:49;91884.91;;;5.49;96.41
44481;BME280;30184;42.018;23.670;2023-02-28T02:06:29;91882.63;;;5.40;96.26
44481;BME280;30184;42.018;23.670;2023-02-28T02:08:59;91899.91;;;5.43;96.49
44481;BME280;30184;42.018;23.670;2023-02-28T02:11:30;91904.56;;;5.32;96.79
44481;BME280;30184;42.018;23.670;2023-02-28T02:14:10;91901.06;;;5.38;96.79
44481;BME280;30184;42.018;23.670;2023-02-28T02:16:54;91906.09;;;5.33;97.24
44481;BME280;30184;42.018;23.670;2023-02-28T02:22:58;91924.53;;;5.31;97.19
44481;BME280;30184;42.018;23.670;2023-02-28T02:25:35;91864.69;;;4.70;97.08
44481;BME280;30184;42.018;23.670;2023-02-28T02:31:24;91934.16;;;5.32;96.98
44481;BME280;30184;42.018;23.670;2023-02-28T02:34:40;91931.50;;;5.28;96.75
44481;BME280;30184;42.018;23.670;2023-02-28T02:37:21;91932.63;;;5.20;96.74
44481;BME280;30184;42.018;23.670;2023-02-28T02:40:04;91947.63;;;5.28;96.68
44481;BME280;30184;42.018;23.670;2023-02-28T02:42:41;91958.75;;;5.30;96.65
44481;BME280;30184;42.018;23.670;2023-02-28T02:45:18;91951.84;;;5.29;96.54
44481;BME280;30184;42.018;23.670;2023-02-28T02:47:51;91885.81;;;4.64;96.30
44481;BME280;30184;42.018;23.670;2023-02-28T02:50:29;91959.16;;;5.25;96.23
44481;BME280;30184;42.018;23.670;2023-02-28T02:53:00;91956.47;;;5.25;96.08
44481;BME280;30184;42.018;23.670;2023-02-28T02:55:34;91832.06;;;4.46;95.79
44481;BME280;30184;42.018;23.670;2023-02-28T02:58:07;91944.16;;;5.20;95.89
44481;BME280;30184;42.018;23.670;2023-02-28T03:00:39;91965.69;;;5.28;95.81
44481;BME280;30184;42.018;23.670;2023-02-28T03:03:11;91971.44;;;5.30;95.69
44481;BME280;30184;42.018;23.670;2023-02-28T03:05:46;91960.72;;;4.98;95.95
44481;BME280;30184;42.018;23.670;2023-02-28T03:08:16;91977.59;;;5.30;95.91
44481;BME280;30184;42.018;23.670;2023-02-28T03:10:48;91968.38;;;5.31;96.07
44481;BME280;30184;42.018;23.670;2023-02-28T03:13:34;91967.59;;;5.34;96.12
44481;BME280;30184;42.018;23.670;2023-02-28T03:16:27;91971.06;;;5.35;96.13
44481;BME280;30184;42.018;23.670;2023-02-28T03:19:06;91971.84;;;5.35;96.10
44481;BME280;30184;42.018;23.670;2023-02-28T03:21:46;91989.91;;;5.28;95.92
44481;BME280;30184;42.018;23.670;2023-02-28T03:24:23;91882.34;;;4.67;95.97
44481;BME280;30184;42.018;23.670;2023-02-28T03:27:01;91974.13;;;5.33;95.81
44481;BME280;30184;42.018;23.670;2023-02-28T03:29:34;91884.66;;;4.65;95.71
44481;BME280;30184;42.018;23.670;2023-02-28T03:32:08;91982.59;;;5.35;95.73
44481;BME280;30184;42.018;23.670;2023-02-28T03:34:46;91974.16;;;5.37;95.89
44481;BME280;30184;42.018;23.670;2023-02-28T03:37:21;91974.53;;;5.35;95.84
44481;BME280;30184;42.018;23.670;2023-02-28T03:39:57;91967.56;;;5.38;95.89
44481;BME280;30184;42.018;23.670;2023-02-28T03:42:30;91974.91;;;5.37;95.71
44481;BME280;30184;42.018;23.670;2023-02-28T03:45:02;91975.66;;;5.38;95.66
44481;BME280;30184;42.018;23.670;2023-02-28T03:47:38;91974.53;;;5.35;95.81
44481;BME280;30184;42.018;23.670;2023-02-28T03:50:12;91982.22;;;5.33;95.63
44481;BME280;30184;42.018;23.670;2023-02-28T03:52:47;91947.66;;;5.07;95.65
44481;BME280;30184;42.018;23.670;2023-02-28T03:55:19;92006.03;;;5.24;95.52
44481;BME280;30184;42.018;23.670;2023-02-28T03:57:56;91942.66;;;4.91;95.71
44481;BME280;30184;42.018;23.670;2023-02-28T04:00:31;91923.44;;;4.75;95.59
44481;BME280;30184;42.018;23.670;2023-02-28T04:03:03;92000.28;;;5.11;95.91
44481;BME280;30184;42.018;23.670;2023-02-28T04:05:46;92017.97;;;5.09;95.81
44481;BME280;30184;42.018;23.670;2023-02-28T04:08:20;91992.22;;;5.08;96.04
44481;BME280;30184;42.018;23.670;2023-02-28T04:10:53;91989.53;;;5.04;95.96
44481;BME280;30184;42.018;23.670;2023-02-28T04:13:23;91995.66;;;5.01;95.97
44481;BME280;30184;42.018;23.670;2023-02-28T04:15:53;92000.69;;;4.99;96.04
44481;BME280;30184;42.018;23.670;2023-02-28T04:18:22;91924.19;;;4.50;96.04
44481;BME280;30184;42.018;23.670;2023-02-28T04:20:51;91993.34;;;4.85;96.11
44481;BME280;30184;42.018;23.670;2023-02-28T04:23:22;92000.66;;;4.96;96.30
44481;BME280;30184;42.018;23.670;2023-02-28T04:25:54;91999.88;;;4.95;96.34
44481;BME280;30184;42.018;23.670;2023-02-28T04:28:23;91999.50;;;4.97;96.47
44481;BME280;30184;42.018;23.670;2023-02-28T04:30:56;91892.69;;;4.30;96.55
44481;BME280;30184;42.018;23.670;2023-02-28T04:33:26;92011.03;;;5.01;96.63
44481;BME280;30184;42.018;23.670;2023-02-28T04:35:59;91997.56;;;4.94;96.80
44481;BME280;30184;42.018;23.670;2023-02-28T04:38:33;92011.41;;;5.03;96.96
44481;BME280;30184;42.018;23.670;2023-02-28T04:41:02;92013.34;;;5.06;96.49
44481;BME280;30184;42.018;23.670;2023-02-28T04:43:32;92015.25;;;5.05;96.60
44481;BME280;30184;42.018;23.670;2023-02-28T04:46:03;92023.34;;;4.98;96.45
44481;BME280;30184;42.018;23.670;2023-02-28T04:48:34;92009.88;;;5.05;96.32
44481;BME280;30184;42.018;23.670;2023-02-28T04:51:05;92012.56;;;5.02;95.72
44481;BME280;30184;42.018;23.670;2023-02-28T04:53:38;92011.81;;;4.98;95.14
44481;BME280;30184;42.018;23.670;2023-02-28T04:56:11;92016.41;;;4.97;95.15
44481;BME280;30184;42.018;23.670;2023-02-28T04:58:40;92010.63;;;4.92;95.25
44481;BME280;30184;42.018;23.670;2023-02-28T05:01:22;91990.25;;;4.69;95.86
44481;BME280;30184;42.018;23.670;2023-02-28T05:03:53;92020.25;;;4.96;96.01
44481;BME280;30184;42.018;23.670;2023-02-28T05:06:24;92022.56;;;4.98;95.88
44481;BME280;30184;42.018;23.670;2023-02-28T05:08:56;91964.94;;;4.63;95.85
44481;BME280;30184;42.018;23.670;2023-02-28T05:11:27;92020.22;;;4.82;95.90
44481;BME280;30184;42.018;23.670;2023-02-28T05:14:02;92034.47;;;4.97;95.99
44481;BME280;30184;42.018;23.670;2023-02-28T05:16:31;92030.25;;;4.99;96.09
44481;BME280;30184;42.018;23.670;2023-02-28T05:19:01;92034.88;;;4.99;96.06
44481;BME280;30184;42.018;23.670;2023-02-28T05:21:32;92036.78;;;4.98;95.82
44481;BME280;30184;42.018;23.670;2023-02-28T05:24:05;92037.91;;;5.01;95.90
44481;BME280;30184;42.018;23.670;2023-02-28T05:26:36;92037.16;;;5.04;96.38
44481;BME280;30184;42.018;23.670;2023-02-28T05:29:05;92070.97;;;5.12;96.34
44481;BME280;30184;42.018;23.670;2023-02-28T05:31:36;92054.84;;;5.08;96.68
44481;BME280;30184;42.018;23.670;2023-02-28T05:34:05;92046.38;;;5.20;96.69
44481;BME280;30184;42.018;23.670;2023-02-28T05:36:36;92047.56;;;5.23;96.40
44481;BME280;30184;42.018;23.670;2023-02-28T05:39:07;91932.63;;;4.45;95.72
44481;BME280;30184;42.018;23.670;2023-02-28T05:41:40;92008.75;;;4.99;95.79
44481;BME280;30184;42.018;23.670;2023-02-28T05:44:10;92055.63;;;5.34;96.01
44481;BME280;30184;42.018;23.670;2023-02-28T05:46:40;92052.97;;;5.37;96.19
44481;BME280;30184;42.018;23.670;2023-02-28T05:49:09;92065.25;;;5.45;96.15
44481;BME280;30184;42.018;23.670;2023-02-28T05:51:39;92056.00;;;5.50;96.14
44481;BME280;30184;42.018;23.670;2023-02-28T05:54:10;92066.00;;;5.56;95.90
44481;BME280;30184;42.018;23.670;2023-02-28T05:56:40;92051.78;;;5.52;95.56
44481;BME280;30184;42.018;23.670;2023-02-28T05:59:11;92063.31;;;5.71;95.39
44481;BME280;30184;42.018;23.670;2023-02-28T06:01:42;92091.00;;;5.78;95.23
44481;BME280;30184;42.018;23.670;2023-02-28T06:04:17;91922.28;;;5.04;94.94
44481;BME280;30184;42.018;23.670;2023-02-28T06:07:00;92127.16;;;5.95;94.68
44481;BME280;30184;42.018;23.670;2023-02-28T06:09:32;92060.22;;;5.97;93.88
44481;BME280;30184;42.018;23.670;2023-02-28T06:12:03;92055.59;;;6.01;93.42
44481;BME280;30184;42.018;23.670;2023-02-28T06:14:33;92049.03;;;6.06;93.65
44481;BME280;30184;42.018;23.670;2023-02-28T06:17:03;92057.09;;;6.13;93.86
44481;BME280;30184;42.018;23.670;2023-02-28T06:19:32;91974.84;;;5.62;93.64
44481;BME280;30184;42.018;23.670;2023-02-28T06:22:02;92058.22;;;6.22;93.33
44481;BME280;30184;42.018;23.670;2023-02-28T06:24:34;92060.91;;;6.22;92.56
44481;BME280;30184;42.018;23.670;2023-02-28T06:27:03;92058.59;;;6.24;92.10
44481;BME280;30184;42.018;23.670;2023-02-28T06:29:34;92066.31;;;6.29;92.08
44481;BME280;30184;42.018;23.670;2023-02-28T06:32:04;91976.34;;;5.81;91.47
44481;BME280;30184;42.018;23.670;2023-02-28T06:34:33;92064.34;;;6.37;91.53
44481;BME280;30184;42.018;23.670;2023-02-28T06:37:02;92066.63;;;6.46;91.76
44481;BME280;30184;42.018;23.670;2023-02-28T06:39:33;92066.97;;;6.55;91.84
44481;BME280;30184;42.018;23.670;2023-02-28T06:42:03;92058.47;;;6.60;91.08
44481;BME280;30184;42.018;23.670;2023-02-28T06:44:32;92053.91;;;6.43;90.26
44481;BME280;30184;42.018;23.670;2023-02-28T06:47:03;92057.25;;;6.68;90.13
44481;BME280;30184;42.018;23.670;2023-02-28T06:49:35;92063.38;;;6.79;90.44
44481;BME280;30184;42.018;23.670;2023-02-28T06:52:06;92063.72;;;6.92;90.99
44481;BME280;30184;42.018;23.670;2023-02-28T06:54:38;92060.16;;;7.05;91.14
44481;BME280;30184;42.018;23.670;2023-02-28T06:57:08;92052.38;;;7.15;91.20
44481;BME280;30184;42.018;23.670;2023-02-28T06:59:37;92061.09;;;7.40;91.00
44481;BME280;30184;42.018;23.670;2023-02-28T07:02:08;92058.41;;;7.33;90.20
44481;BME280;30184;42.018;23.670;2023-02-28T07:04:36;92065.44;;;7.71;89.20
44481;BME280;30184;42.018;23.670;2023-02-28T07:07:08;92056.41;;;7.88;88.56
44481;BME280;30184;42.018;23.670;2023-02-28T07:09:39;92059.38;;;8.05;87.76
44481;BME280;30184;42.018;23.670;2023-02-28T07:12:08;92025.00;;;8.05;87.62
44481;BME280;30184;42.018;23.670;2023-02-28T07:14:38;92086.88;;;8.37;85.79
44481;BME280;30184;42.018;23.670;2023-02-28T07:17:08;92046.28;;;8.41;85.18
44481;BME280;30184;42.018;23.670;2023-02-28T07:19:39;92060.03;;;8.53;84.57
44481;BME280;30184;42.018;23.670;2023-02-28T07:22:09;92001.97;;;8.28;83.82
44481;BME280;30184;42.018;23.670;2023-02-28T07:24:43;92054.19;;;8.58;83.29
44481;BME280;30184;42.018;23.670;2023-02-28T07:27:12;92053.31;;;8.65;83.70
44481;BME280;30184;42.018;23.670;2023-02-28T07:29:53;92062.47;;;8.75;83.61
44481;BME280;30184;42.018;23.670;2023-02-28T07:32:22;92061.22;;;8.83;83.47
44481;BME280;30184;42.018;23.670;2023-02-28T07:34:52;92066.97;;;8.88;83.14
44481;BME280;30184;42.018;23.670;2023-02-28T07:37:21;92045.13;;;8.72;82.68
44481;BME280;30184;42.018;23.670;2023-02-28T07:39:52;92054.09;;;8.96;82.72
44481;BME280;30184;42.018;23.670;2023-02-28T07:42:22;92051.66;;;9.05;82.70
44481;BME280;30184;42.018;23.670;2023-02-28T07:44:51;91983.31;;;8.71;81.92
44481;BME280;30184;42.018;23.670;2023-02-28T07:47:21;92045.19;;;9.26;81.77
44481;BME280;30184;42.018;23.670;2023-02-28T07:49:52;92047.31;;;9.38;81.46
44481;BME280;30184;42.018;23.670;2023-02-28T07:52:22;91971.38;;;8.95;81.08
44481;BME280;30184;42.018;23.670;2023-02-28T07:54:53;92036.81;;;9.67;80.68
44481;BME280;30184;42.018;23.670;2023-02-28T07:57:23;92040.06;;;9.82;79.99
44481;BME280;30184;42.018;23.670;2023-02-28T07:59:53;92035.91;;;9.97;79.71
44481;BME280;30184;42.018;23.670;2023-02-28T08:02:22;92033.72;;;10.11;79.26
44481;BME280;30184;42.018;23.670;2023-02-28T08:04:51;92027.78;;;10.20;78.93
44481;BME280;30184;42.018;23.670;2023-02-28T08:07:21;92032.25;;;10.30;78.19
44481;BME280;30184;42.018;23.670;2023-02-28T08:09:50;91997.19;;;10.20;77.67
44481;BME280;30184;42.018;23.670;2023-02-28T08:12:21;92017.72;;;10.40;77.33
44481;BME280;30184;42.018;23.670;2023-02-28T08:14:50;92033.03;;;10.51;77.07
44481;BME280;30184;42.018;23.670;2023-02-28T08:17:20;92037.47;;;10.61;77.21
44481;BME280;30184;42.018;23.670;2023-02-28T08:19:49;91994.56;;;10.36;76.77
44481;BME280;30184;42.018;23.670;2023-02-28T08:22:19;92038.31;;;10.77;76.49
44481;BME280;30184;42.018;23.670;2023-02-28T08:24:48;92028.50;;;10.83;75.97
44481;BME280;30184;42.018;23.670;2023-02-28T08:27:18;91987.88;;;10.60;76.29
44481;BME280;30184;42.018;23.670;2023-02-28T08:29:49;92026.25;;;10.98;76.17
44481;BME280;30184;42.018;23.670;2023-02-28T08:32:18;92027.91;;;11.12;75.86
44481;BME280;30184;42.018;23.670;2023-02-28T08:34:56;92015.53;;;11.27;74.62
44481;BME280;30184;42.018;23.670;2023-02-28T08:37:25;92006.03;;;11.19;73.95
44481;BME280;30184;42.018;23.670;2023-02-28T08:39:55;92015.06;;;11.48;74.31
44481;BME280;30184;42.018;23.670;2023-02-28T08:42:24;92017.50;;;11.59;74.25
44481;BME280;30184;42.018;23.670;2023-02-28T08:44:55;92015.66;;;11.72;73.27
44481;BME280;30184;42.018;23.670;2023-02-28T08:47:25;92004.72;;;11.76;72.78
44481;BME280;30184;42.018;23.670;2023-02-28T08:49:54;92010.81;;;11.80;72.87
44481;BME280;30184;42.018;23.670;2023-02-28T08:52:24;91995.63;;;11.82;72.21
44481;BME280;30184;42.018;23.670;2023-02-28T08:54:53;92011.72;;;12.06;70.22
44481;BME280;30184;42.018;23.670;2023-02-28T08:57:23;92007.81;;;12.23;70.17
44481;BME280;30184;42.018;23.670;2023-02-28T08:59:55;91860.66;;;11.43;69.35
44481;BME280;30184;42.018;23.670;2023-02-28T09:02:25;92008.75;;;12.45;68.85
44481;BME280;30184;42.018;23.670;2023-02-28T09:04:54;91989.97;;;12.51;69.21
44481;BME280;30184;42.018;23.670;2023-02-28T09:07:23;91983.97;;;12.56;68.86
44481;BME280;30184;42.018;23.670;2023-02-28T09:09:52;91990.75;;;12.64;68.51
44481;BME280;30184;42.018;23.670;2023-02-28T09:12:26;91992.28;;;12.65;67.56
44481;BME280;30184;42.018;23.670;2023-02-28T09:14:58;91988.91;;;12.74;67.92
44481;BME280;30184;42.018;23.670;2023-02-28T09:17:27;91988.06;;;12.77;67.81
44481;BME280;30184;42.018;23.670;2023-02-28T09:19:57;91987.94;;;12.67;67.69
44481;BME280;30184;42.018;23.670;2023-02-28T09:22:27;91979.66;;;12.71;66.40
44481;BME280;30184;42.018;23.670;2023-02-28T09:24:58;91972.06;;;12.79;65.51
44481;BME280;30184;42.018;23.670;2023-02-28T09:27:27;91981.09;;;12.88;66.03
44481;BME280;30184;42.018;23.670;2023-02-28T09:29:58;91972.63;;;12.99;66.10
44481;BME280;30184;42.018;23.670;2023-02-28T09:32:27;91977.75;;;13.09;66.40
44481;BME280;30184;42.018;23.670;2023-02-28T09:34:56;91970.47;;;13.19;66.14
44481;BME280;30184;42.018;23.670;2023-02-28T09:37:25;91967.75;;;13.19;66.08
44481;BME280;30184;42.018;23.670;2023-02-28T09:39:56;91960.34;;;13.20;66.44
44481;BME280;30184;42.018;23.670;2023-02-28T09:42:31;91961.66;;;13.28;64.22
44481;BME280;30184;42.018;23.670;2023-02-28T09:45:10;92000.69;;;13.25;64.61
44481;BME280;30184;42.018;23.670;2023-02-28T09:47:45;91988.38;;;13.58;64.21
44481;BME280;30184;42.018;23.670;2023-02-28T09:50:22;91998.41;;;13.61;63.79
44481;BME280;30184;42.018;23.670;2023-02-28T09:52:56;91960.97;;;13.74;63.00
44481;BME280;30184;42.018;23.670;2023-02-28T09:55:29;91974.59;;;13.74;62.30
44481;BME280;30184;42.018;23.670;2023-02-28T09:58:14;91951.34;;;13.82;62.17
44481;BME280;30184;42.018;23.670;2023-02-28T10:00:52;91958.66;;;13.73;60.73
44481;BME280;30184;42.018;23.670;2023-02-28T10:03:30;91941.94;;;13.83;61.62
44481;BME280;30184;42.018;23.670;2023-02-28T10:06:08;91933.53;;;13.91;60.04
44481;BME280;30184;42.018;23.670;2023-02-28T10:08:43;91939.19;;;13.96;60.40
44481;BME280;30184;42.018;23.670;2023-02-28T10:11:16;91929.94;;;13.94;60.71
44481;BME280;30184;42.018;23.670;2023-02-28T10:13:54;91924.75;;;14.08;62.20
44481;BME280;30184;42.018;23.670;2023-02-28T10:16:33;91918.31;;;14.02;61.76
44481;BME280;30184;42.018;23.670;2023-02-28T10:19:08;91905.69;;;13.96;61.96
44481;BME280;30184;42.018;23.670;2023-02-28T10:21:43;91908.19;;;14.03;62.79
44481;BME280;30184;42.018;23.670;2023-02-28T10:24:21;91900.78;;;13.91;61.24
44481;BME280;30184;42.018;23.670;2023-02-28T10:26:52;91908.50;;;14.05;61.39
44481;BME280;30184;42.018;23.670;2023-02-28T10:29:26;91916.88;;;14.10;61.23
44481;BME280;30184;42.018;23.670;2023-02-28T10:32:01;91903.66;;;14.09;61.74
44481;BME280;30184;42.018;23.670;2023-02-28T10:34:31;91900.06;;;14.12;61.19
44481;BME280;30184;42.018;23.670;2023-02-28T10:37:01;91897.25;;;14.03;61.75
44481;BME280;30184;42.018;23.670;2023-02-28T10:39:37;91900.97;;;14.31;61.38
44481;BME280;30184;42.018;23.670;2023-02-28T10:42:22;91811.66;;;13.88;61.88
44481;BME280;30184;42.018;23.670;2023-02-28T10:45:10;91863.66;;;14.49;60.57
44481;BME280;30184;42.018;23.670;2023-02-28T10:47:51;91879.00;;;14.56;60.87
44481;BME280;30184;42.018;23.670;2023-02-28T10:50:31;91854.56;;;14.31;60.97
44481;BME280;30184;42.018;23.670;2023-02-28T10:53:22;91859.88;;;14.56;60.95
44481;BME280;30184;42.018;23.670;2023-02-28T10:55:58;91845.34;;;14.59;61.89
44481;BME280;30184;42.018;23.670;2023-02-28T10:58:30;91859.56;;;14.85;60.12
44481;BME280;30184;42.018;23.670;2023-02-28T11:01:00;91857.97;;;14.97;59.51
44481;BME280;30184;42.018;23.670;2023-02-28T11:03:33;91855.28;;;15.15;58.94
44481;BME280;30184;42.018;23.670;2023-02-28T11:06:08;91808.63;;;14.91;59.16
44481;BME280;30184;42.018;23.670;2023-02-28T11:08:47;91847.16;;;15.42;56.69
44481;BME280;30184;42.018;23.670;2023-02-28T11:11:18;91874.84;;;15.53;56.03
44481;BME280;30184;42.018;23.670;2023-02-28T11:13:52;91835.22;;;15.67;54.90
44481;BME280;30184;42.018;23.670;2023-02-28T11:16:31;91838.13;;;15.73;54.24
44481;BME280;30184;42.018;23.670;2023-02-28T11:19:04;91837.97;;;15.76;54.15
44481;BME280;30184;42.018;23.670;2023-02-28T11:21:37;91834.31;;;15.70;55.27
44481;BME280;30184;42.018;23.670;2023-02-28T11:24:15;91828.53;;;15.59;54.24
44481;BME280;30184;42.018;23.670;2023-02-28T11:26:50;91791.09;;;15.19;55.13
44481;BME280;30184;42.018;23.670;2023-02-28T11:29:21;91843.97;;;15.35;56.23
44481;BME280;30184;42.018;23.670;2023-02-28T11:32:12;91826.97;;;15.49;56.42
44481;BME280;30184;42.018;23.670;2023-02-28T11:34:45;91822.84;;;15.35;55.24
44481;BME280;30184;42.018;23.670;2023-02-28T11:37:17;91821.19;;;15.28;56.11
44481;BME280;30184;42.018;23.670;2023-02-28T11:39:47;91821.13;;;15.10;56.94
44481;BME280;30184;42.018;23.670;2023-02-28T11:42:34;91816.13;;;15.18;57.32
44481;BME280;30184;42.018;23.670;2023-02-28T11:45:17;91815.78;;;15.07;58.71
44481;BME280;30184;42.018;23.670;2023-02-28T11:47:56;91802.03;;;14.79;58.87
44481;BME280;30184;42.018;23.670;2023-02-28T11:50:43;91769.88;;;14.43;59.20
44481;BME280;30184;42.018;23.670;2023-02-28T11:53:22;91829.13;;;14.65;60.12
44481;BME280;30184;42.018;23.670;2023-02-28T11:55:59;91814.84;;;14.61;60.80
44481;BME280;30184;42.018;23.670;2023-02-28T11:58:40;91790.56;;;14.53;61.50
44481;BME280;30184;42.018;23.670;2023-02-28T12:01:28;91807.75;;;14.63;61.47
44481;BME280;30184;42.018;23.670;2023-02-28T12:04:12;91798.19;;;14.68;61.74
44481;BME280;30184;42.018;23.670;2023-02-28T12:06:50;91812.47;;;14.72;61.71
44481;BME280;30184;42.018;23.670;2023-02-28T12:09:40;91782.72;;;14.74;62.03
44481;BME280;30184;42.018;23.670;2023-02-28T12:12:23;91795.53;;;14.86;61.81
44481;BME280;30184;42.018;23.670;2023-02-28T12:15:02;91790.50;;;14.84;61.61
44481;BME280;30184;42.018;23.670;2023-02-28T12:17:44;91792.19;;;14.82;61.93
44481;BME280;30184;42.018;23.670;2023-02-28T12:20:24;91731.25;;;14.54;61.23
44481;BME280;30184;42.018;23.670;2023-02-28T12:23:04;91755.09;;;14.63;61.19
44481;BME280;30184;42.018;23.670;2023-02-28T12:25:47;91583.38;;;13.44;61.21
44481;BME280;30184;42.018;23.670;2023-02-28T12:28:21;91801.19;;;14.91;61.36
44481;BME280;30184;42.018;23.670;2023-02-28T12:30:57;91791.59;;;14.87;61.18
44481;BME280;30184;42.018;23.670;2023-02-28T12:33:32;91762.97;;;14.61;61.22
44481;BME280;30184;42.018;23.670;2023-02-28T12:36:07;91698.88;;;14.12;60.67
44481;BME280;30184;42.018;23.670;2023-02-28T12:38:43;91777.50;;;14.57;61.46
44481;BME280;30184;42.018;23.670;2023-02-28T12:41:16;91781.69;;;14.71;62.41
44481;BME280;30184;42.018;23.670;2023-02-28T12:43:52;91778.59;;;14.60;62.75
44481;BME280;30184;42.018;23.670;2023-02-28T12:46:30;91774.63;;;14.52;63.20
44481;BME280;30184;42.018;23.670;2023-02-28T12:49:05;91777.91;;;14.47;62.74
44481;BME280;30184;42.018;23.670;2023-02-28T12:51:35;91765.19;;;14.22;62.36
44481;BME280;30184;42.018;23.670;2023-02-28T12:54:15;91617.03;;;12.85;63.29
44481;BME280;30184;42.018;23.670;2023-02-28T12:56:54;91769.03;;;13.59;64.93
44481;BME280;30184;42.018;23.670;2023-02-28T12:59:29;91772.56;;;13.47;65.47
44481;BME280;30184;42.018;23.670;2023-02-28T13:02:24;91766.13;;;13.06;67.64
44481;BME280;30184;42.018;23.670;2023-02-28T13:08:07;91702.84;;;12.17;68.81
44481;BME280;30184;42.018;23.670;2023-02-28T13:10:45;91772.94;;;12.64;69.01
44481;BME280;30184;42.018;23.670;2023-02-28T13:13:18;91767.38;;;12.55;69.80
44481;BME280;30184;42.018;23.670;2023-02-28T13:16:07;91755.84;;;12.25;70.51
44481;BME280;30184;42.018;23.670;2023-02-28T13:18:38;91720.91;;;11.86;70.84
44481;BME280;30184;42.018;23.670;2023-02-28T13:21:10;91773.47;;;12.08;71.57
44481;BME280;30184;42.018;23.670;2023-02-28T13:24:01;91777.47;;;11.91;72.68
44481;BME280;30184;42.018;23.670;2023-02-28T13:29:40;91627.34;;;10.46;74.71
44481;BME280;30184;42.018;23.670;2023-02-28T13:32:33;91693.75;;;10.70;75.70
44481;BME280;30184;42.018;23.670;2023-02-28T13:35:36;91787.41;;;11.23;76.28
44481;BME280;30184;42.018;23.670;2023-02-28T13:38:24;91715.16;;;10.52;76.62
44481;BME280;30184;42.018;23.670;2023-02-28T13:44:05;91799.00;;;10.95;77.18